Allenhurst, New Jersey
Current Conditions -  °F | °C
As of 1:35 PM on Wednesday 26 Nov 2014 (Local Time) from KBLM Reporting Station
Overcast Overcast  
Wind Chill: 28°   Ceiling: 600
Heat Index: 37°   Visibility: 5mi
Dew Point: 30°   Wind: 16mph
Humidity: 75%   Direction: 10°N
Pressure: 29.88"   Gusts: 23mph
Location:  40.24°N, 74°W
Report Text: KBLM 261835Z AUTO 01014G20KT 5SM OVC006 03/M01 A2988 RMK AO1 P0005
Loading
Personal Weather Stations






























Interactive Weather Map New forecast layout! Learn more

10-Day Weather Forecast

Advertisements
Track Severe Weather on mobile